Terminal Aerodrome Forecast
Issued by NWS Twin Cities, MN

Home | Current Version | Previous Version | Text Only | Print | Product List | Glossary On
Versions: 1 2 3 4 5 6 7 8 9 10 11 12 13 14 15 16 17 18 19 20 21
000
FTUS43 KMPX 122300
TAFSTC
TAF
KSTC 122335Z 1300/1324 28007KT P6SM FEW100
     FM130400 28005KT P6SM VCSH FEW060 SCT090
     FM130700 29005KT P6SM FEW090
     FM131500 31012G18KT P6SM FEW045
     FM131800 29016G23KT P6SM SCT060=

USA.gov is the U.S. government's official web portal to all federal, state and local government web resources and services.